createdAt,value
2023-03-30T00:01:12.143Z,73.21
2023-03-30T00:03:44.192Z,73.32
2023-03-30T00:06:14.731Z,73.40
2023-03-30T00:08:42.991Z,73.53
2023-03-30T00:11:17.179Z,73.55
2023-03-30T00:13:47.024Z,73.55
2023-03-30T00:16:14.971Z,73.50
2023-03-30T00:18:45.042Z,73.58
2023-03-30T00:21:20.780Z,73.64
2023-03-30T00:23:52.383Z,73.63
2023-03-30T00:26:20.613Z,73.78
2023-03-30T00:28:48.495Z,73.85
2023-03-30T00:31:17.185Z,73.89
2023-03-30T00:33:47.541Z,73.75
2023-03-30T00:36:17.817Z,73.75
2023-03-30T00:38:49.361Z,73.72
2023-03-30T00:41:17.931Z,73.73
2023-03-30T00:44:07.588Z,73.82
2023-03-30T00:46:36.505Z,73.70
2023-03-30T00:49:06.657Z,73.73
2023-03-30T00:51:37.366Z,73.71
2023-03-30T00:54:08.629Z,73.75
2023-03-30T00:56:38.021Z,73.63
2023-03-30T00:59:05.932Z,73.84
2023-03-30T01:01:39.534Z,73.67
2023-03-30T01:04:10.105Z,73.75
2023-03-30T01:06:40.436Z,73.76
2023-03-30T01:09:09.013Z,73.76
2023-03-30T01:11:40.462Z,73.77
2023-03-30T01:14:10.122Z,73.72
2023-03-30T01:16:48.736Z,73.74
2023-03-30T01:19:44.654Z,73.52
2023-03-30T01:22:18.594Z,73.66
2023-03-30T01:24:53.676Z,73.78
2023-03-30T01:27:30.673Z,73.70
2023-03-30T01:30:30.579Z,73.79
2023-03-30T01:33:23.485Z,73.79
2023-03-30T01:36:03.562Z,73.67
2023-03-30T01:41:11.474Z,73.89
2023-03-30T01:43:57.487Z,73.96
2023-03-30T01:46:40.276Z,73.96
2023-03-30T01:49:16.289Z,74.07
2023-03-30T01:52:03.859Z,74.10
2023-03-30T01:54:38.982Z,74.07
2023-03-30T01:57:15.514Z,74.08
2023-03-30T01:59:47.639Z,74.04
2023-03-30T02:02:16.948Z,74.04
2023-03-30T02:04:45.771Z,73.95
2023-03-30T02:07:16.289Z,73.87
2023-03-30T02:09:45.823Z,74.03
2023-03-30T02:12:14.005Z,73.97
2023-03-30T02:14:42.668Z,73.99
2023-03-30T02:17:15.226Z,74.13
2023-03-30T02:19:47.517Z,74.13
2023-03-30T02:22:17.712Z,74.16
2023-03-30T02:24:46.694Z,74.19
2023-03-30T02:27:14.516Z,74.31
2023-03-30T02:29:44.605Z,74.23
2023-03-30T02:32:19.589Z,74.09
2023-03-30T02:35:22.525Z,74.11
2023-03-30T02:38:26.573Z,74.12
2023-03-30T02:41:15.799Z,74.23
2023-03-30T02:43:51.263Z,74.34
2023-03-30T02:46:38.514Z,74.33
2023-03-30T02:49:17.246Z,74.21
2023-03-30T02:51:57.204Z,74.41
2023-03-30T02:54:51.000Z,74.63
2023-03-30T02:57:49.279Z,74.68
2023-03-30T03:00:44.459Z,74.75
2023-03-30T03:03:19.972Z,74.67
2023-03-30T03:05:49.035Z,74.79
2023-03-30T03:08:18.983Z,74.84
2023-03-30T03:10:47.702Z,74.70
2023-03-30T03:13:20.882Z,74.66
2023-03-30T03:15:49.845Z,74.74
2023-03-30T03:18:18.818Z,74.81
2023-03-30T03:20:47.028Z,74.87
2023-03-30T03:23:16.625Z,74.93
2023-03-30T03:25:51.690Z,74.89
2023-03-30T03:28:22.411Z,74.83
2023-03-30T03:30:54.342Z,74.89
2023-03-30T03:33:24.864Z,74.79
2023-03-30T03:36:00.547Z,74.93
2023-03-30T03:38:29.470Z,75.10
2023-03-30T03:40:58.531Z,75.12
2023-03-30T03:43:26.903Z,75.19
2023-03-30T03:45:55.091Z,75.07
2023-03-30T03:48:24.414Z,75.14
2023-03-30T03:50:53.937Z,75.12
2023-03-30T03:53:22.944Z,75.14
2023-03-30T03:55:52.922Z,75.20
2023-03-30T03:58:23.788Z,75.35
2023-03-30T04:00:57.463Z,75.24
2023-03-30T04:03:32.398Z,75.17
2023-03-30T04:06:01.195Z,75.21
2023-03-30T04:08:30.659Z,75.44
2023-03-30T04:11:10.039Z,75.95
2023-03-30T04:13:48.940Z,75.58
2023-03-30T04:16:44.252Z,74.40
2023-03-30T04:19:33.532Z,73.83
2023-03-30T04:22:24.383Z,73.38
2023-03-30T04:25:16.060Z,72.47
2023-03-30T04:28:06.658Z,71.79
2023-03-30T04:30:59.065Z,71.39
2023-03-30T04:34:02.676Z,70.87
2023-03-30T04:36:48.992Z,70.60
2023-03-30T04:39:36.282Z,69.80
2023-03-30T04:42:34.481Z,68.14
2023-03-30T04:45:23.744Z,66.54
2023-03-30T04:48:16.534Z,64.70
2023-03-30T04:50:56.398Z,62.81
2023-03-30T04:53:43.057Z,60.95
2023-03-30T04:56:26.407Z,59.44
2023-03-30T04:59:13.314Z,58.35
2023-03-30T05:02:01.092Z,57.14
2023-03-30T05:04:42.294Z,56.13
2023-03-30T05:07:31.557Z,55.26
2023-03-30T05:10:22.966Z,54.71
2023-03-30T05:12:57.590Z,54.19
2023-03-30T05:15:39.908Z,52.91
2023-03-30T05:18:26.165Z,52.12
2023-03-30T05:21:09.165Z,50.75
2023-03-30T05:23:55.929Z,49.56
2023-03-30T05:27:02.955Z,47.83
2023-03-30T05:29:51.639Z,46.15
2023-03-30T05:32:47.384Z,44.02
2023-03-30T05:35:27.135Z,42.77
2023-03-30T05:38:19.073Z,41.51
2023-03-30T05:41:11.223Z,39.93
2023-03-30T05:43:59.505Z,38.19
2023-03-30T05:46:58.652Z,37.14
2023-03-30T05:49:41.401Z,35.59
2023-03-30T05:52:18.815Z,34.42
2023-03-30T05:55:02.872Z,33.59
2023-03-30T05:57:50.450Z,32.14
2023-03-30T06:00:42.545Z,32.05
2023-03-30T06:03:16.469Z,31.13
2023-03-30T06:05:46.702Z,29.97
2023-03-30T06:08:15.295Z,29.38
2023-03-30T06:10:52.198Z,29.32
2023-03-30T06:13:20.173Z,28.45
2023-03-30T06:15:52.172Z,28.56
2023-03-30T06:18:22.706Z,27.66
2023-03-30T06:20:57.506Z,27.33
2023-03-30T06:23:26.482Z,27.04
2023-03-30T06:25:56.210Z,26.24
2023-03-30T06:28:29.093Z,26.16
2023-03-30T06:30:56.999Z,26.13
2023-03-30T06:33:26.421Z,25.50
2023-03-30T06:35:58.685Z,25.14
2023-03-30T06:38:27.640Z,24.97
2023-03-30T06:40:57.097Z,25.16
2023-03-30T06:43:26.340Z,25.01
2023-03-30T06:46:16.038Z,24.94
2023-03-30T06:48:48.847Z,25.00
2023-03-30T06:51:37.241Z,24.50
2023-03-30T06:54:06.299Z,24.73
2023-03-30T06:56:34.498Z,24.73
2023-03-30T06:59:10.945Z,24.48
2023-03-30T07:02:00.037Z,24.64
2023-03-30T07:04:53.078Z,24.95
2023-03-30T07:07:26.568Z,25.41
2023-03-30T07:09:54.790Z,25.97
2023-03-30T07:12:25.093Z,26.21
2023-03-30T07:14:54.485Z,26.58
2023-03-30T07:17:26.400Z,27.07
2023-03-30T07:19:59.016Z,28.12
2023-03-30T07:22:27.898Z,28.21
2023-03-30T07:24:55.861Z,28.33
2023-03-30T07:27:27.287Z,28.46
2023-03-30T07:30:00.528Z,28.62
2023-03-30T07:32:34.815Z,28.98
2023-03-30T07:35:04.397Z,29.58
2023-03-30T07:37:32.660Z,29.63
2023-03-30T07:40:01.323Z,30.00
2023-03-30T07:42:31.591Z,30.32
2023-03-30T07:44:59.897Z,30.47
2023-03-30T07:47:29.008Z,30.81
2023-03-30T07:49:57.217Z,30.66
2023-03-30T07:52:26.405Z,31.33
2023-03-30T07:54:58.764Z,31.82
2023-03-30T07:57:34.312Z,32.08
2023-03-30T08:00:05.621Z,32.48
2023-03-30T08:03:05.335Z,32.88
2023-03-30T08:05:38.967Z,32.80
2023-03-30T08:08:15.981Z,32.90
2023-03-30T08:10:44.905Z,32.75
2023-03-30T08:13:15.539Z,32.89
2023-03-30T08:15:45.313Z,33.83
2023-03-30T08:18:14.249Z,33.70
2023-03-30T08:20:45.595Z,33.60
2023-03-30T08:23:14.176Z,33.46
2023-03-30T08:25:42.916Z,33.34
2023-03-30T08:28:11.777Z,32.97
2023-03-30T08:30:40.101Z,32.96
2023-03-30T08:33:09.298Z,33.51
2023-03-30T08:35:37.583Z,34.21
2023-03-30T08:38:05.433Z,34.32
2023-03-30T08:40:33.230Z,34.33
2023-03-30T08:43:09.823Z,34.07
2023-03-30T08:45:42.623Z,33.69
2023-03-30T08:48:22.134Z,33.35
2023-03-30T08:51:14.766Z,33.89
2023-03-30T08:53:42.867Z,34.14
2023-03-30T08:56:19.089Z,34.09
2023-03-30T08:58:56.490Z,34.02
2023-03-30T09:01:42.344Z,34.10
2023-03-30T09:04:27.428Z,33.59
2023-03-30T09:06:58.315Z,32.86
2023-03-30T09:09:28.875Z,32.86
2023-03-30T09:12:05.194Z,32.59
2023-03-30T09:14:36.674Z,33.55
2023-03-30T09:17:14.568Z,33.67
2023-03-30T09:19:49.355Z,33.80
2023-03-30T09:22:18.468Z,34.16
2023-03-30T09:24:46.775Z,33.73
2023-03-30T09:27:22.639Z,33.88
2023-03-30T09:29:51.604Z,34.52
2023-03-30T09:32:36.016Z,34.61
2023-03-30T09:35:14.933Z,34.51
2023-03-30T09:37:42.837Z,34.85
2023-03-30T09:40:23.376Z,34.20
2023-03-30T09:42:55.562Z,33.92
2023-03-30T09:45:31.995Z,33.90
2023-03-30T09:48:06.555Z,34.06
2023-03-30T09:50:44.152Z,33.98
2023-03-30T09:53:25.805Z,33.91
2023-03-30T09:56:11.270Z,33.89
2023-03-30T09:58:42.422Z,33.54
2023-03-30T10:01:12.814Z,33.50
2023-03-30T10:04:05.799Z,33.20
2023-03-30T10:06:39.541Z,32.93
2023-03-30T10:09:11.455Z,33.00
2023-03-30T10:11:44.918Z,33.23
2023-03-30T10:14:23.754Z,33.88
2023-03-30T10:16:56.742Z,34.01
2023-03-30T10:19:25.709Z,34.29
2023-03-30T10:21:58.909Z,33.91
2023-03-30T10:24:33.232Z,33.07
2023-03-30T10:27:09.735Z,33.46
2023-03-30T10:29:37.805Z,33.46
2023-03-30T10:32:19.688Z,33.52
2023-03-30T10:34:52.472Z,34.01
2023-03-30T10:37:34.563Z,34.38
2023-03-30T10:40:08.878Z,34.26
2023-03-30T10:42:37.103Z,34.16
2023-03-30T10:45:06.404Z,33.74
2023-03-30T10:48:03.117Z,33.77
2023-03-30T10:50:52.236Z,33.76
2023-03-30T10:53:30.954Z,34.04
2023-03-30T10:56:17.286Z,34.10
2023-03-30T10:59:16.338Z,34.70
2023-03-30T11:02:08.820Z,34.97
2023-03-30T11:04:36.747Z,34.84
2023-03-30T11:07:05.754Z,34.69
2023-03-30T11:09:36.770Z,34.38
2023-03-30T11:12:11.304Z,34.39
2023-03-30T11:14:47.758Z,34.40
2023-03-30T11:17:35.556Z,34.30
2023-03-30T11:20:17.955Z,34.69
2023-03-30T11:22:49.235Z,34.78
2023-03-30T11:25:39.507Z,34.43
2023-03-30T11:28:44.974Z,34.70
2023-03-30T11:31:40.340Z,35.01
2023-03-30T11:34:28.486Z,34.85
2023-03-30T11:37:13.580Z,34.75
2023-03-30T11:39:48.026Z,34.33
2023-03-30T11:42:23.236Z,33.39
2023-03-30T11:44:51.837Z,33.32
2023-03-30T11:47:37.044Z,33.43
2023-03-30T11:50:50.794Z,33.28
2023-03-30T11:53:28.609Z,33.22
2023-03-30T11:56:06.770Z,33.43
2023-03-30T11:58:38.229Z,33.50
2023-03-30T12:02:04.552Z,33.26
2023-03-30T12:04:40.294Z,32.54
2023-03-30T12:07:35.420Z,32.69
2023-03-30T12:10:08.297Z,32.56
2023-03-30T12:12:45.738Z,33.10
2023-03-30T12:15:26.493Z,33.73
2023-03-30T12:18:02.830Z,33.95
2023-03-30T12:20:43.183Z,33.94
2023-03-30T12:23:36.009Z,33.82
2023-03-30T12:26:25.913Z,33.76
2023-03-30T12:29:26.240Z,33.70
2023-03-30T12:31:56.040Z,33.82
2023-03-30T12:34:26.167Z,33.74
2023-03-30T12:37:10.127Z,33.84
2023-03-30T12:39:51.007Z,33.83
2023-03-30T12:42:35.278Z,33.94
2023-03-30T12:45:14.961Z,33.66
2023-03-30T12:47:52.589Z,34.08
2023-03-30T12:51:00.290Z,34.06
2023-03-30T12:53:47.274Z,33.98
2023-03-30T12:56:35.576Z,33.99
2023-03-30T12:59:26.376Z,34.28
2023-03-30T13:02:01.874Z,33.83
2023-03-30T13:04:34.468Z,33.63
2023-03-30T13:07:07.081Z,33.53
2023-03-30T13:10:01.863Z,33.49
2023-03-30T13:12:36.066Z,33.79
2023-03-30T13:15:31.634Z,34.25
2023-03-30T13:18:05.037Z,34.02
2023-03-30T13:20:47.117Z,34.17
2023-03-30T13:23:19.817Z,34.01
2023-03-30T13:26:07.869Z,34.51
2023-03-30T13:28:57.489Z,34.59
2023-03-30T13:31:44.179Z,35.02
2023-03-30T13:34:22.146Z,34.88
2023-03-30T13:37:14.554Z,35.12
2023-03-30T13:40:24.554Z,35.32
2023-03-30T13:43:10.157Z,35.32
2023-03-30T13:46:13.154Z,35.21
2023-03-30T13:48:49.983Z,35.08
2023-03-30T13:51:27.563Z,35.08
2023-03-30T13:54:01.697Z,34.72
2023-03-30T13:59:32.222Z,34.62
2023-03-30T14:02:01.074Z,35.24
2023-03-30T14:04:34.590Z,35.36
2023-03-30T14:07:14.235Z,35.45
2023-03-30T14:09:42.611Z,35.25
2023-03-30T14:12:18.515Z,35.33
2023-03-30T14:14:48.386Z,34.78
2023-03-30T14:17:21.852Z,34.95
2023-03-30T14:20:19.855Z,35.42
2023-03-30T14:22:47.888Z,35.54
2023-03-30T14:25:26.336Z,35.50
2023-03-30T14:28:02.947Z,35.35
2023-03-30T14:30:31.356Z,35.90
2023-03-30T14:33:11.507Z,36.17
2023-03-30T14:35:50.953Z,36.38
2023-03-30T14:38:24.090Z,35.98
2023-03-30T14:40:53.267Z,36.17
2023-03-30T14:43:24.628Z,36.07
2023-03-30T14:45:53.739Z,36.12
2023-03-30T14:48:31.737Z,36.50
2023-03-30T14:51:19.906Z,36.66
2023-03-30T14:53:49.993Z,36.77
2023-03-30T14:56:20.661Z,36.34
2023-03-30T14:58:49.413Z,36.42
2023-03-30T15:01:31.050Z,36.60
2023-03-30T15:04:07.618Z,36.28
2023-03-30T15:06:36.652Z,36.43
2023-03-30T15:09:15.094Z,36.27
2023-03-30T15:11:43.521Z,36.48
2023-03-30T15:14:15.218Z,36.59
2023-03-30T15:16:43.125Z,36.85
2023-03-30T15:19:28.081Z,36.97
2023-03-30T15:22:01.085Z,36.93
2023-03-30T15:24:33.098Z,37.05
2023-03-30T15:27:03.305Z,36.93
2023-03-30T15:29:31.614Z,37.28
2023-03-30T15:32:20.186Z,37.34
2023-03-30T15:35:13.701Z,37.33
2023-03-30T15:37:56.108Z,37.48
2023-03-30T15:40:40.936Z,37.57
2023-03-30T15:43:20.032Z,37.92
2023-03-30T15:46:08.871Z,37.69
2023-03-30T15:48:45.630Z,37.96
2023-03-30T15:51:24.705Z,38.15
2023-03-30T15:53:56.781Z,38.42
2023-03-30T15:57:04.059Z,38.72
2023-03-30T15:59:40.617Z,39.05
2023-03-30T16:02:22.766Z,39.42
2023-03-30T16:04:51.666Z,39.98
2023-03-30T16:07:21.195Z,40.47
2023-03-30T16:09:49.052Z,41.01
2023-03-30T16:12:20.648Z,41.56
2023-03-30T16:14:48.588Z,41.48
2023-03-30T16:17:16.752Z,41.85
2023-03-30T16:19:45.763Z,42.38
2023-03-30T16:22:14.331Z,42.94
2023-03-30T16:24:43.650Z,43.48
2023-03-30T16:27:12.184Z,43.93
2023-03-30T16:29:45.967Z,44.33
2023-03-30T16:32:13.877Z,44.67
2023-03-30T16:34:43.092Z,45.03
2023-03-30T16:37:13.717Z,45.38
2023-03-30T16:39:42.644Z,46.01
2023-03-30T16:42:11.138Z,46.59
2023-03-30T16:44:39.033Z,46.89
2023-03-30T16:47:07.399Z,47.19
2023-03-30T16:49:35.544Z,47.50
2023-03-30T16:52:03.549Z,47.94
2023-03-30T16:54:32.961Z,48.28
2023-03-30T16:57:02.548Z,48.77
2023-03-30T16:59:34.447Z,49.32
2023-03-30T17:02:03.520Z,49.94
2023-03-30T17:04:31.695Z,50.49
2023-03-30T17:07:01.868Z,50.72
2023-03-30T17:09:30.198Z,50.99
2023-03-30T17:11:58.181Z,51.52
2023-03-30T17:14:26.133Z,52.22
2023-03-30T17:16:55.188Z,52.76
2023-03-30T17:19:25.664Z,53.25
2023-03-30T17:21:53.550Z,53.76
2023-03-30T17:24:21.710Z,54.02
2023-03-30T17:26:49.667Z,54.40
2023-03-30T17:29:17.830Z,54.84
2023-03-30T17:31:52.221Z,55.10
2023-03-30T17:34:20.431Z,55.35
2023-03-30T17:36:48.392Z,55.70
2023-03-30T17:39:16.832Z,55.65
2023-03-30T17:41:44.867Z,55.74
2023-03-30T17:44:17.838Z,55.93
2023-03-30T17:46:46.295Z,56.31
2023-03-30T17:49:18.618Z,56.67
2023-03-30T17:51:47.165Z,56.98
2023-03-30T17:54:15.640Z,57.20
2023-03-30T17:56:43.672Z,57.48
2023-03-30T17:59:11.739Z,57.89
2023-03-30T18:01:40.191Z,58.09
2023-03-30T18:04:08.430Z,58.30
2023-03-30T18:06:36.474Z,58.31
2023-03-30T18:09:06.209Z,58.49
2023-03-30T18:11:35.165Z,58.74
2023-03-30T18:14:03.208Z,59.12
2023-03-30T18:16:31.265Z,59.34
2023-03-30T18:18:59.495Z,59.62
2023-03-30T18:21:27.732Z,59.71
2023-03-30T18:23:57.022Z,60.00
2023-03-30T18:26:24.862Z,60.10
2023-03-30T18:28:52.858Z,60.15
2023-03-30T18:31:22.360Z,60.29
2023-03-30T18:33:53.062Z,60.49
2023-03-30T18:36:21.615Z,60.87
2023-03-30T18:38:50.406Z,60.95
2023-03-30T18:41:18.264Z,61.27
2023-03-30T18:43:47.312Z,61.59
2023-03-30T18:46:15.213Z,62.11
2023-03-30T18:48:44.424Z,62.46
2023-03-30T18:51:12.719Z,62.80
2023-03-30T18:53:42.505Z,63.06
2023-03-30T18:56:11.630Z,63.33
2023-03-30T18:58:42.025Z,63.68
2023-03-30T19:01:16.125Z,64.26
2023-03-30T19:03:45.344Z,64.64
2023-03-30T19:06:16.572Z,65.02
2023-03-30T19:08:44.725Z,64.97
2023-03-30T19:11:14.994Z,65.00
2023-03-30T19:13:43.032Z,65.29
2023-03-30T19:16:12.502Z,65.55
2023-03-30T19:18:41.109Z,65.67
2023-03-30T19:21:13.484Z,65.96
2023-03-30T19:23:41.557Z,66.18
2023-03-30T19:26:09.628Z,66.29
2023-03-30T19:28:40.107Z,66.20
2023-03-30T19:31:12.174Z,66.19
2023-03-30T19:33:40.548Z,66.30
2023-03-30T19:36:11.060Z,66.36
2023-03-30T19:38:39.102Z,66.39
2023-03-30T19:41:10.238Z,66.45
2023-03-30T19:43:38.423Z,66.41
2023-03-30T19:46:08.991Z,66.51
2023-03-30T19:48:38.551Z,66.93
2023-03-30T19:51:06.976Z,67.19
2023-03-30T19:53:37.914Z,67.26
2023-03-30T19:56:10.436Z,67.21
2023-03-30T19:58:38.924Z,67.21
2023-03-30T20:01:08.291Z,67.12
2023-03-30T20:03:37.407Z,67.12
2023-03-30T20:06:11.805Z,67.08
2023-03-30T20:08:40.283Z,66.95
2023-03-30T20:11:08.878Z,66.93
2023-03-30T20:13:36.890Z,66.73
2023-03-30T20:16:06.063Z,66.59
2023-03-30T20:18:35.690Z,66.89
2023-03-30T20:21:04.638Z,67.05
2023-03-30T20:23:33.180Z,67.18
2023-03-30T20:26:04.252Z,67.26
2023-03-30T20:28:34.007Z,67.48
2023-03-30T20:31:02.066Z,67.70
2023-03-30T20:33:32.819Z,67.56
2023-03-30T20:36:01.310Z,67.37
2023-03-30T20:38:29.444Z,67.16
2023-03-30T20:40:58.564Z,67.26
2023-03-30T20:43:26.807Z,67.08
2023-03-30T20:46:05.762Z,67.06
2023-03-30T20:48:37.632Z,67.32
2023-03-30T20:51:10.974Z,67.48
2023-03-30T20:53:39.326Z,67.39
2023-03-30T20:56:10.336Z,67.15
2023-03-30T20:58:39.196Z,67.06
2023-03-30T21:01:18.855Z,67.04
2023-03-30T21:03:50.213Z,67.20
2023-03-30T21:06:19.816Z,67.37
2023-03-30T21:08:48.780Z,67.58
2023-03-30T21:11:17.120Z,67.72
2023-03-30T21:13:56.684Z,67.84
2023-03-30T21:16:24.779Z,67.88
2023-03-30T21:18:53.516Z,67.74
2023-03-30T21:21:22.970Z,67.43
2023-03-30T21:23:50.869Z,67.39
2023-03-30T21:26:19.252Z,67.25
2023-03-30T21:28:47.252Z,67.01
2023-03-30T21:31:17.322Z,66.85
2023-03-30T21:33:46.379Z,66.75
2023-03-30T21:36:14.407Z,67.24
2023-03-30T21:38:42.468Z,67.57
2023-03-30T21:41:14.039Z,67.69
2023-03-30T21:43:44.408Z,67.88
2023-03-30T21:46:20.628Z,67.75
2023-03-30T21:48:53.698Z,67.82
2023-03-30T21:51:27.399Z,67.72
2023-03-30T21:53:56.178Z,67.73
2023-03-30T21:56:26.020Z,67.71
2023-03-30T21:58:53.979Z,67.68
2023-03-30T22:01:25.085Z,67.60
2023-03-30T22:03:54.313Z,67.61
2023-03-30T22:06:22.561Z,67.72
2023-03-30T22:11:20.716Z,67.97
2023-03-30T22:13:49.101Z,68.21
2023-03-30T22:16:25.852Z,68.24
2023-03-30T22:18:56.957Z,68.25
2023-03-30T22:21:27.288Z,68.30
2023-03-30T22:23:55.120Z,68.00
2023-03-30T22:26:22.981Z,67.89
2023-03-30T22:28:51.384Z,67.80
2023-03-30T22:31:23.328Z,67.75
2023-03-30T22:33:52.972Z,67.55
2023-03-30T22:36:23.278Z,67.62
2023-03-30T22:38:51.985Z,67.62
2023-03-30T22:41:24.001Z,67.67
2023-03-30T22:43:53.196Z,67.80
2023-03-30T22:46:21.678Z,67.94
2023-03-30T22:48:51.753Z,68.07
2023-03-30T22:51:26.522Z,68.18
2023-03-30T22:53:58.021Z,68.15
2023-03-30T22:56:31.850Z,67.87
2023-03-30T22:59:01.385Z,67.72
2023-03-30T23:01:32.060Z,67.71
2023-03-30T23:04:01.876Z,67.42
2023-03-30T23:06:31.915Z,67.32
2023-03-30T23:09:04.308Z,67.27
2023-03-30T23:11:34.429Z,67.09
2023-03-30T23:14:05.454Z,67.01
2023-03-30T23:16:34.338Z,67.02
2023-03-30T23:19:03.318Z,67.21
2023-03-30T23:21:34.419Z,67.26
2023-03-30T23:24:07.668Z,67.31
2023-03-30T23:26:36.812Z,67.50
2023-03-30T23:29:04.975Z,67.44
2023-03-30T23:31:34.830Z,67.61
2023-03-30T23:34:02.864Z,67.67
2023-03-30T23:36:31.381Z,67.88
2023-03-30T23:38:59.247Z,68.01
2023-03-30T23:41:29.099Z,67.98
2023-03-30T23:43:58.288Z,68.08
2023-03-30T23:46:26.764Z,68.22
2023-03-30T23:48:55.014Z,68.26
2023-03-30T23:51:22.929Z,68.36
2023-03-30T23:53:54.570Z,68.46
2023-03-30T23:56:27.849Z,68.73
2023-03-30T23:58:56.896Z,68.80
